Time;durP1;ratioP1;P1;durP2;ratioP2;P2;SDS_P1;SDS_P2;PMS_P1;PMS_P2;Temp;Humidity;BMP_temperature;BMP_pressure;BME280_temperature;BME280_humidity;BME280_pressure;Samples;Min_cycle;Max_cycle;Signal;HPM_P1;HPM_P2
2022/03/22 00:01:44;;;;;;;;;23.25;21.50;;;;;;;;5014119;28;51104;-67
2022/03/22 00:04:10;;;;;;;;;20.75;19.50;;;;;;;;5011763;28;52357;-69
2022/03/22 00:06:35;;;;;;;;;25.25;23.75;;;;;;;;5013807;28;51104;-69
2022/03/22 00:09:01;;;;;;;;;21.75;21.75;;;;;;;;5011132;28;50950;-67
2022/03/22 00:11:26;;;;;;;;;21.00;21.00;;;;;;;;5006267;28;51029;-67
2022/03/22 00:13:51;;;;;;;;;22.00;21.50;;;;;;;;5008494;28;51157;-68
2022/03/22 00:16:16;;;;;;;;;21.25;21.25;;;;;;;;5008744;28;51973;-68
2022/03/22 00:18:42;;;;;;;;;20.00;18.75;;;;;;;;5008966;28;51480;-67
2022/03/22 00:21:07;;;;;;;;;19.00;19.00;;;;;;;;5015413;28;51263;-68
2022/03/22 00:23:32;;;;;;;;;18.75;18.50;;;;;;;;5009612;28;51616;-68
2022/03/22 00:25:58;;;;;;;;;22.00;21.00;;;;;;;;5015863;28;51223;-68
2022/03/22 00:28:23;;;;;;;;;21.50;20.50;;;;;;;;5008637;28;51130;-69
2022/03/22 00:30:49;;;;;;;;;23.25;20.75;;;;;;;;5014165;28;51330;-66
2022/03/22 00:33:14;;;;;;;;;20.75;19.50;;;;;;;;5020768;28;52350;-66
2022/03/22 00:35:40;;;;;;;;;21.00;20.25;;;;;;;;5011353;28;51327;-69
2022/03/22 00:38:11;;;;;;;;;20.25;19.50;;;;;;;;5011136;28;51267;-67
2022/03/22 00:40:36;;;;;;;;;22.25;21.50;;;;;;;;5011786;28;50987;-67
2022/03/22 00:43:01;;;;;;;;;23.00;20.75;;;;;;;;5009451;28;51893;-66
2022/03/22 00:45:29;;;;;;;;;25.75;22.75;;;;;;;;5013134;28;50807;-65
2022/03/22 00:47:56;;;;;;;;;20.00;19.00;;;;;;;;5015357;28;51187;-65
2022/03/22 00:50:22;;;;;;;;;19.25;18.50;;;;;;;;5015417;28;51064;-67
2022/03/22 00:52:48;;;;;;;;;24.00;23.00;;;;;;;;5018506;28;51587;-69
2022/03/22 00:55:13;;;;;;;;;23.00;20.25;;;;;;;;5014732;28;51203;-68
2022/03/22 00:57:40;;;;;;;;;20.00;19.75;;;;;;;;5010504;28;51197;-68
2022/03/22 01:00:07;;;;;;;;;20.00;19.00;;;;;;;;5013814;28;51354;-68
2022/03/22 01:02:36;;;;;;;;;22.75;21.25;;;;;;;;5004521;28;52819;-68
2022/03/22 01:05:03;;;;;;;;;19.25;18.00;;;;;;;;5015130;28;51282;-67
2022/03/22 01:07:29;;;;;;;;;24.50;22.50;;;;;;;;5013134;28;51071;-67
2022/03/22 01:09:54;;;;;;;;;20.50;20.00;;;;;;;;5008715;28;51219;-66
2022/03/22 01:12:19;;;;;;;;;20.25;17.50;;;;;;;;5011902;28;50935;-66
2022/03/22 01:14:44;;;;;;;;;20.50;19.25;;;;;;;;5008962;28;51129;-69
2022/03/22 01:17:09;;;;;;;;;18.00;17.00;;;;;;;;5020227;28;51153;-71
2022/03/22 01:19:35;;;;;;;;;23.00;19.25;;;;;;;;5005989;28;51318;-69
2022/03/22 01:22:00;;;;;;;;;14.00;13.75;;;;;;;;5014503;28;53958;-69
2022/03/22 01:24:26;;;;;;;;;21.25;19.75;;;;;;;;5012536;28;51069;-70
2022/03/22 01:26:51;;;;;;;;;21.25;18.75;;;;;;;;5021896;28;52605;-70
2022/03/22 01:29:17;;;;;;;;;16.50;16.50;;;;;;;;5014288;28;50899;-71
2022/03/22 01:31:42;;;;;;;;;23.25;20.50;;;;;;;;5008621;28;51115;-70
2022/03/22 01:34:08;;;;;;;;;21.25;19.25;;;;;;;;5011502;28;50998;-69
2022/03/22 01:36:33;;;;;;;;;22.75;22.00;;;;;;;;5012554;28;51032;-72
2022/03/22 01:38:59;;;;;;;;;21.50;18.75;;;;;;;;5013639;28;51370;-73
2022/03/22 01:41:24;;;;;;;;;21.25;20.25;;;;;;;;5008384;28;51605;-73
2022/03/22 01:43:49;;;;;;;;;25.00;22.50;;;;;;;;5024415;28;51140;-70
2022/03/22 01:46:15;;;;;;;;;25.00;23.00;;;;;;;;5010964;28;51466;-71
2022/03/22 01:48:41;;;;;;;;;20.25;19.50;;;;;;;;5009799;28;51051;-71
2022/03/22 01:51:06;;;;;;;;;21.50;20.00;;;;;;;;5014991;28;52172;-71
2022/03/22 01:53:35;;;;;;;;;22.00;20.75;;;;;;;;5022021;28;51360;-71
2022/03/22 01:56:00;;;;;;;;;23.50;22.50;;;;;;;;5013942;28;51094;-71
2022/03/22 01:58:25;;;;;;;;;19.75;19.75;;;;;;;;5018412;28;51000;-72
2022/03/22 02:05:51;;;;;;;;;21.75;21.75;;;;;;;;5018276;28;52369;-72
2022/03/22 02:06:27;;;;;;;;;17.00;15.00;;;;;;;;5004383;28;51105;-71
2022/03/22 02:08:52;;;;;;;;;19.00;18.25;;;;;;;;5012057;28;51373;-71
2022/03/22 02:11:17;;;;;;;;;23.50;20.75;;;;;;;;5012704;28;51754;-70
2022/03/22 02:13:42;;;;;;;;;23.00;21.75;;;;;;;;5006971;28;51191;-72
2022/03/22 02:16:08;;;;;;;;;21.75;20.50;;;;;;;;5014645;28;51282;-70
2022/03/22 02:18:33;;;;;;;;;20.25;16.50;;;;;;;;5012885;28;51246;-72
2022/03/22 02:21:00;;;;;;;;;19.50;19.50;;;;;;;;5007255;28;52410;-72
2022/03/22 02:23:45;;;;;;;;;24.25;21.50;;;;;;;;5010086;28;50957;-72
2022/03/22 02:26:10;;;;;;;;;23.25;23.25;;;;;;;;5012653;28;51046;-71
2022/03/22 02:28:35;;;;;;;;;20.00;18.75;;;;;;;;5016406;28;51801;-71
2022/03/22 02:31:01;;;;;;;;;21.25;21.25;;;;;;;;5010152;28;52930;-70
2022/03/22 02:33:26;;;;;;;;;26.25;25.00;;;;;;;;5020181;28;51686;-71
2022/03/22 02:35:51;;;;;;;;;21.75;21.00;;;;;;;;5020898;28;51626;-69
2022/03/22 02:38:16;;;;;;;;;20.50;18.75;;;;;;;;5007927;28;51138;-70
2022/03/22 02:40:42;;;;;;;;;22.00;21.75;;;;;;;;4999397;28;52219;-71
2022/03/22 02:43:08;;;;;;;;;20.50;20.00;;;;;;;;5010721;28;51002;-70
2022/03/22 02:45:33;;;;;;;;;27.00;23.75;;;;;;;;5012431;28;51167;-72
2022/03/22 02:47:58;;;;;;;;;23.25;22.25;;;;;;;;5019934;28;51093;-71
2022/03/22 02:50:23;;;;;;;;;24.50;21.50;;;;;;;;5013648;28;51061;-72
2022/03/22 02:52:48;;;;;;;;;22.50;21.25;;;;;;;;5010346;28;50993;-70
2022/03/22 02:55:14;;;;;;;;;20.75;19.50;;;;;;;;5007592;28;51104;-71
2022/03/22 02:57:40;;;;;;;;;21.00;20.25;;;;;;;;5003118;28;51103;-75
2022/03/22 03:00:06;;;;;;;;;23.00;21.50;;;;;;;;5012234;28;51903;-75
2022/03/22 03:02:32;;;;;;;;;26.25;24.25;;;;;;;;4997088;28;51007;-76
2022/03/22 03:04:57;;;;;;;;;22.25;20.75;;;;;;;;5003481;28;51561;-76
2022/03/22 03:07:22;;;;;;;;;22.50;22.00;;;;;;;;5000871;28;51397;-75
2022/03/22 03:09:48;;;;;;;;;20.50;20.25;;;;;;;;5008616;28;53161;-74
2022/03/22 03:12:13;;;;;;;;;22.00;21.25;;;;;;;;5007826;28;51615;-74
2022/03/22 03:14:39;;;;;;;;;21.50;20.25;;;;;;;;5006118;28;51142;-74
2022/03/22 03:17:08;;;;;;;;;21.50;21.50;;;;;;;;5010756;28;51021;-73
2022/03/22 03:19:34;;;;;;;;;18.00;18.00;;;;;;;;5014216;28;51927;-73
2022/03/22 03:21:59;;;;;;;;;25.75;23.25;;;;;;;;5014959;28;51573;-74
2022/03/22 03:24:24;;;;;;;;;41.50;35.75;;;;;;;;5015130;28;51344;-74
2022/03/22 03:26:50;;;;;;;;;22.25;22.25;;;;;;;;5016513;28;51524;-75
2022/03/22 03:29:15;;;;;;;;;23.25;22.25;;;;;;;;5012549;28;51604;-74
2022/03/22 03:31:40;;;;;;;;;21.50;19.75;;;;;;;;5015646;28;51194;-74
2022/03/22 03:34:05;;;;;;;;;21.25;20.75;;;;;;;;5013699;28;51616;-74
2022/03/22 03:36:30;;;;;;;;;24.25;23.25;;;;;;;;5015417;28;51311;-74
2022/03/22 03:38:56;;;;;;;;;16.50;16.50;;;;;;;;5014287;28;53687;-74
2022/03/22 03:47:03;;;;;;;;;25.25;21.25;;;;;;;;5005098;28;51134;-74
2022/03/22 03:47:07;;;;;;;;;20.25;20.25;;;;;;;;4998636;28;51287;-74
2022/03/22 03:49:37;;;;;;;;;18.25;17.75;;;;;;;;5011718;28;51136;-76
2022/03/22 03:52:03;;;;;;;;;23.50;22.00;;;;;;;;5019841;28;51132;-74
2022/03/22 03:54:28;;;;;;;;;21.75;21.25;;;;;;;;5013930;28;51023;-74
2022/03/22 03:56:53;;;;;;;;;24.50;23.25;;;;;;;;5012407;28;51638;-73
2022/03/22 03:59:18;;;;;;;;;22.00;20.00;;;;;;;;5015455;28;51717;-72
2022/03/22 04:01:44;;;;;;;;;20.75;20.25;;;;;;;;5024331;28;51254;-72
2022/03/22 04:04:09;;;;;;;;;19.75;19.75;;;;;;;;5015551;28;51089;-73
2022/03/22 04:06:34;;;;;;;;;22.50;22.50;;;;;;;;5023819;28;51363;-72
2022/03/22 04:08:59;;;;;;;;;24.50;21.50;;;;;;;;5014924;28;51758;-73
2022/03/22 04:11:25;;;;;;;;;22.25;20.50;;;;;;;;5008801;28;51021;-72
2022/03/22 04:13:50;;;;;;;;;17.00;17.00;;;;;;;;5025306;28;51004;-72
2022/03/22 04:16:15;;;;;;;;;24.00;24.00;;;;;;;;5012615;28;51057;-73
2022/03/22 04:18:40;;;;;;;;;22.50;22.25;;;;;;;;5021492;28;51171;-73
2022/03/22 04:21:07;;;;;;;;;27.50;27.00;;;;;;;;5013929;28;51295;-73
2022/03/22 04:23:32;;;;;;;;;23.75;22.50;;;;;;;;5015362;28;51354;-74
2022/03/22 04:25:58;;;;;;;;;20.75;19.75;;;;;;;;5021611;28;51268;-74
2022/03/22 04:33:51;;;;;;;;;26.00;23.25;;;;;;;;5014152;28;51088;-74
2022/03/22 04:36:17;;;;;;;;;25.25;24.00;;;;;;;;5015978;28;51837;-75
2022/03/22 04:38:42;;;;;;;;;22.25;21.50;;;;;;;;5026438;28;51773;-74
2022/03/22 04:41:08;;;;;;;;;23.25;20.50;;;;;;;;5012483;28;51195;-75
2022/03/22 04:43:33;;;;;;;;;23.00;23.00;;;;;;;;5011289;28;51005;-74
2022/03/22 04:45:58;;;;;;;;;25.25;22.25;;;;;;;;5013433;28;51229;-75
2022/03/22 04:48:24;;;;;;;;;22.25;21.00;;;;;;;;5013525;28;52937;-75
2022/03/22 04:56:43;;;;;;;;;28.00;25.00;;;;;;;;5021400;28;51359;-74
2022/03/22 04:59:02;;;;;;;;;22.00;22.00;;;;;;;;5010034;28;51524;-75
2022/03/22 05:01:27;;;;;;;;;26.50;25.00;;;;;;;;5010093;28;51182;-73
2022/03/22 05:03:52;;;;;;;;;23.00;21.75;;;;;;;;5008103;28;51158;-73
2022/03/22 05:06:26;;;;;;;;;24.25;22.75;;;;;;;;5007645;28;51530;-72
2022/03/22 05:08:55;;;;;;;;;25.75;23.50;;;;;;;;5015739;28;50978;-74
2022/03/22 05:11:20;;;;;;;;;24.50;23.50;;;;;;;;5013405;28;51052;-73
2022/03/22 05:13:46;;;;;;;;;25.50;24.75;;;;;;;;5007492;28;51073;-72
2022/03/22 05:16:11;;;;;;;;;25.75;23.50;;;;;;;;5016146;28;51098;-73
2022/03/22 05:18:36;;;;;;;;;25.50;23.75;;;;;;;;5013184;28;51083;-73
2022/03/22 05:21:04;;;;;;;;;27.75;26.25;;;;;;;;5019519;28;51367;-74
2022/03/22 05:23:29;;;;;;;;;31.25;28.50;;;;;;;;5005352;28;51424;-73
2022/03/22 05:25:55;;;;;;;;;25.50;23.50;;;;;;;;5014978;28;50979;-72
2022/03/22 05:28:20;;;;;;;;;24.25;22.75;;;;;;;;5011672;28;51044;-73
2022/03/22 05:30:45;;;;;;;;;26.00;24.25;;;;;;;;5014688;28;51153;-73
2022/03/22 05:33:10;;;;;;;;;26.25;25.25;;;;;;;;5019572;28;51084;-74
2022/03/22 05:35:36;;;;;;;;;26.75;26.25;;;;;;;;5011374;28;50942;-73
2022/03/22 05:38:01;;;;;;;;;28.50;23.75;;;;;;;;5010490;28;51054;-73
2022/03/22 05:40:26;;;;;;;;;28.75;27.25;;;;;;;;5012274;28;51156;-73
2022/03/22 05:42:54;;;;;;;;;27.50;22.25;;;;;;;;5013611;28;51263;-73
2022/03/22 05:45:19;;;;;;;;;26.75;23.50;;;;;;;;5011782;28;51424;-72
2022/03/22 05:47:44;;;;;;;;;24.00;23.00;;;;;;;;5011756;28;51920;-72
2022/03/22 05:50:10;;;;;;;;;24.75;23.75;;;;;;;;5015184;28;51115;-73
2022/03/22 05:52:40;;;;;;;;;28.00;25.75;;;;;;;;5012483;28;52494;-73
2022/03/22 05:55:06;;;;;;;;;30.00;27.50;;;;;;;;5016443;28;51248;-72
2022/03/22 05:57:31;;;;;;;;;25.25;25.25;;;;;;;;5026424;28;52945;-72
2022/03/22 05:59:56;;;;;;;;;25.50;24.75;;;;;;;;5015188;28;51188;-74
2022/03/22 06:02:21;;;;;;;;;26.25;26.00;;;;;;;;5023050;28;51052;-73
2022/03/22 06:04:48;;;;;;;;;27.00;25.50;;;;;;;;5010349;28;51170;-73
2022/03/22 06:07:13;;;;;;;;;26.25;24.50;;;;;;;;5029666;28;51906;-73
2022/03/22 06:09:38;;;;;;;;;24.25;23.75;;;;;;;;5022294;28;50993;-72
2022/03/22 06:12:06;;;;;;;;;26.50;25.00;;;;;;;;5001763;28;51022;-72
2022/03/22 06:14:31;;;;;;;;;25.25;24.00;;;;;;;;5012142;28;51037;-74
2022/03/22 06:16:56;;;;;;;;;23.50;23.00;;;;;;;;5020312;28;51088;-73
2022/03/22 06:19:22;;;;;;;;;27.75;26.25;;;;;;;;5015806;28;51356;-73
2022/03/22 06:21:47;;;;;;;;;29.50;27.00;;;;;;;;5010220;28;51187;-73
2022/03/22 06:24:13;;;;;;;;;29.25;28.00;;;;;;;;5011450;28;51243;-74
2022/03/22 06:26:38;;;;;;;;;28.00;26.75;;;;;;;;5012915;28;51789;-75
2022/03/22 06:29:03;;;;;;;;;26.00;24.25;;;;;;;;5014112;28;51210;-74
2022/03/22 06:31:35;;;;;;;;;31.00;27.75;;;;;;;;5014365;28;51323;-72
2022/03/22 06:34:01;;;;;;;;;25.50;24.25;;;;;;;;5013313;28;51350;-72
2022/03/22 06:36:27;;;;;;;;;31.50;27.00;;;;;;;;5044852;28;51032;-70
2022/03/22 06:38:52;;;;;;;;;22.25;20.00;;;;;;;;5012181;28;50997;-70
2022/03/22 06:41:17;;;;;;;;;32.00;30.75;;;;;;;;5011488;28;50959;-70
2022/03/22 06:43:42;;;;;;;;;27.00;25.00;;;;;;;;5011939;28;51300;-70
2022/03/22 06:46:07;;;;;;;;;25.50;24.25;;;;;;;;5038818;28;52246;-70
2022/03/22 06:48:33;;;;;;;;;27.00;25.75;;;;;;;;5010822;28;51110;-70
2022/03/22 06:50:58;;;;;;;;;27.75;27.00;;;;;;;;5012177;28;51140;-71
2022/03/22 06:53:23;;;;;;;;;30.75;26.50;;;;;;;;5011441;28;51151;-70
2022/03/22 06:55:52;;;;;;;;;30.25;28.50;;;;;;;;4992128;28;51829;-72
2022/03/22 06:58:21;;;;;;;;;31.75;30.25;;;;;;;;4997140;28;50977;-70
2022/03/22 07:00:46;;;;;;;;;32.25;30.25;;;;;;;;5008574;28;51121;-71
2022/03/22 07:03:12;;;;;;;;;29.00;27.50;;;;;;;;5008773;28;51503;-71
2022/03/22 07:05:37;;;;;;;;;26.50;23.75;;;;;;;;5008855;28;53059;-70
2022/03/22 07:08:02;;;;;;;;;30.25;29.00;;;;;;;;5004556;28;51037;-71
2022/03/22 07:10:28;;;;;;;;;31.25;29.75;;;;;;;;5001707;28;51132;-71
2022/03/22 07:12:54;;;;;;;;;28.75;28.25;;;;;;;;5009533;28;51132;-71
2022/03/22 07:15:23;;;;;;;;;34.50;32.00;;;;;;;;4998651;28;51414;-71
2022/03/22 07:17:48;;;;;;;;;27.75;27.50;;;;;;;;4999595;28;51143;-72
2022/03/22 07:20:13;;;;;;;;;34.75;31.25;;;;;;;;5006305;28;51194;-71
2022/03/22 07:22:39;;;;;;;;;35.75;33.25;;;;;;;;5003464;28;51137;-72
2022/03/22 07:25:04;;;;;;;;;31.75;30.75;;;;;;;;5002082;28;51712;-72
2022/03/22 07:27:30;;;;;;;;;34.25;32.50;;;;;;;;5036284;28;51105;-71
2022/03/22 07:29:56;;;;;;;;;34.75;30.00;;;;;;;;5001809;28;51115;-72
2022/03/22 07:32:22;;;;;;;;;39.25;34.25;;;;;;;;5003900;28;51129;-71
2022/03/22 07:34:47;;;;;;;;;38.25;33.00;;;;;;;;5023350;28;53903;-72
2022/03/22 07:37:14;;;;;;;;;34.75;32.00;;;;;;;;5006229;28;51157;-71
2022/03/22 07:39:39;;;;;;;;;36.25;33.25;;;;;;;;5023426;28;51244;-71
2022/03/22 07:42:04;;;;;;;;;28.00;28.00;;;;;;;;5043282;28;51327;-71
2022/03/22 07:44:31;;;;;;;;;32.25;29.50;;;;;;;;5009426;28;52512;-71
2022/03/22 07:46:56;;;;;;;;;37.50;32.25;;;;;;;;5029007;28;51000;-71
2022/03/22 07:54:49;;;;;;;;;33.00;31.25;;;;;;;;5010218;28;51056;-71
2022/03/22 07:57:14;;;;;;;;;34.25;30.25;;;;;;;;5011355;28;51235;-71
2022/03/22 07:59:39;;;;;;;;;29.25;28.25;;;;;;;;5012016;28;51189;-72
2022/03/22 08:02:04;;;;;;;;;28.75;28.75;;;;;;;;5011500;28;51341;-72
2022/03/22 08:04:30;;;;;;;;;29.25;27.50;;;;;;;;5011973;28;50842;-71
2022/03/22 08:06:55;;;;;;;;;33.25;32.25;;;;;;;;5013677;28;50931;-71
2022/03/22 08:09:20;;;;;;;;;32.00;30.00;;;;;;;;5015132;28;51076;-72
2022/03/22 08:11:46;;;;;;;;;26.75;25.50;;;;;;;;5015065;28;50983;-72
2022/03/22 08:14:11;;;;;;;;;36.75;33.25;;;;;;;;5014595;28;52718;-72
2022/03/22 08:16:36;;;;;;;;;29.00;28.00;;;;;;;;5014492;28;50927;-71
2022/03/22 08:19:04;;;;;;;;;33.75;31.75;;;;;;;;5013260;28;51031;-72
2022/03/22 08:21:29;;;;;;;;;31.75;30.25;;;;;;;;5014792;28;51145;-72
2022/03/22 08:23:55;;;;;;;;;31.00;29.25;;;;;;;;5014185;28;51017;-73
2022/03/22 08:26:20;;;;;;;;;29.50;29.00;;;;;;;;5014566;28;50958;-72
2022/03/22 08:28:46;;;;;;;;;31.75;29.75;;;;;;;;5014897;28;51071;-71
2022/03/22 08:31:11;;;;;;;;;30.00;29.25;;;;;;;;5014282;28;51357;-71
2022/03/22 08:33:36;;;;;;;;;36.50;32.75;;;;;;;;5013875;28;51854;-73
2022/03/22 08:36:02;;;;;;;;;32.00;31.00;;;;;;;;5014319;28;51011;-72
2022/03/22 08:38:27;;;;;;;;;30.00;28.75;;;;;;;;5014408;28;51044;-71
2022/03/22 08:40:56;;;;;;;;;32.25;29.50;;;;;;;;5014872;28;51405;-72
2022/03/22 08:43:21;;;;;;;;;33.75;30.00;;;;;;;;5014151;28;53104;-71
2022/03/22 08:45:46;;;;;;;;;26.50;25.25;;;;;;;;5013173;28;50980;-70
2022/03/22 08:48:12;;;;;;;;;26.25;24.75;;;;;;;;5013765;28;51004;-71
2022/03/22 08:50:49;;;;;;;;;26.00;24.75;;;;;;;;5014400;28;51370;-71
2022/03/22 08:53:16;;;;;;;;;28.25;26.25;;;;;;;;5014230;28;51944;-72
2022/03/22 08:55:42;;;;;;;;;20.50;20.00;;;;;;;;5013877;28;50989;-70
2022/03/22 08:58:08;;;;;;;;;20.33;19.67;;;;;;;;5014675;28;51128;-72
2022/03/22 09:00:33;;;;;;;;;21.33;21.33;;;;;;;;5014325;28;50954;-72
2022/03/22 09:02:59;;;;;;;;;22.75;21.75;;;;;;;;5000695;28;51102;-72
2022/03/22 09:08:08;;;;;;;;;24.33;23.67;;;;;;;;5014331;28;51113;-70
2022/03/22 09:10:35;;;;;;;;;21.33;21.33;;;;;;;;5011798;28;51220;-71
2022/03/22 09:13:01;;;;;;;;;21.50;20.50;;;;;;;;5014167;28;51348;-71
2022/03/22 09:15:27;;;;;;;;;19.00;18.00;;;;;;;;5013533;28;51045;-71
2022/03/22 09:17:53;;;;;;;;;18.67;18.33;;;;;;;;5012620;28;51146;-70
2022/03/22 09:20:19;;;;;;;;;18.33;18.00;;;;;;;;5012870;28;50920;-71
2022/03/22 09:22:46;;;;;;;;;16.00;15.33;;;;;;;;5013785;28;51899;-71
2022/03/22 09:25:11;;;;;;;;;18.67;17.67;;;;;;;;5014033;28;51146;-71
2022/03/22 09:27:38;;;;;;;;;20.00;18.33;;;;;;;;5028483;28;50967;-72
2022/03/22 09:30:03;;;;;;;;;18.33;18.33;;;;;;;;4994187;28;51168;-72
2022/03/22 09:32:28;;;;;;;;;20.67;20.67;;;;;;;;4999233;28;51141;-71
2022/03/22 09:34:54;;;;;;;;;19.00;18.00;;;;;;;;5013598;28;51000;-72
2022/03/22 09:37:19;;;;;;;;;22.00;19.67;;;;;;;;5013402;28;50863;-70
2022/03/22 09:39:45;;;;;;;;;19.33;18.33;;;;;;;;5013833;28;51030;-72
2022/03/22 09:42:11;;;;;;;;;21.33;20.33;;;;;;;;5012899;28;52182;-71
2022/03/22 09:44:36;;;;;;;;;19.67;18.67;;;;;;;;5012623;28;51108;-71
2022/03/22 09:47:03;;;;;;;;;21.00;18.50;;;;;;;;5012928;28;51010;-71
2022/03/22 09:49:28;;;;;;;;;20.67;20.33;;;;;;;;5013686;28;51381;-71
2022/03/22 09:51:53;;;;;;;;;21.00;19.67;;;;;;;;5015608;28;51226;-72
2022/03/22 09:54:22;;;;;;;;;19.33;18.33;;;;;;;;5012826;28;51117;-71
2022/03/22 09:56:48;;;;;;;;;17.00;17.00;;;;;;;;5011794;28;50981;-71
2022/03/22 09:59:17;;;;;;;;;18.67;18.00;;;;;;;;5013042;28;51298;-71
2022/03/22 10:01:43;;;;;;;;;19.67;19.00;;;;;;;;5012645;28;51785;-71
2022/03/22 10:04:12;;;;;;;;;18.00;17.67;;;;;;;;5012997;28;51153;-71
2022/03/22 10:06:39;;;;;;;;;19.00;17.00;;;;;;;;5013631;28;51013;-71
2022/03/22 10:09:07;;;;;;;;;17.67;17.00;;;;;;;;5013256;28;51309;-71
2022/03/22 10:11:37;;;;;;;;;19.00;17.33;;;;;;;;5011278;28;54019;-72
2022/03/22 10:14:03;;;;;;;;;15.33;15.00;;;;;;;;5012485;28;51002;-71
2022/03/22 10:16:28;;;;;;;;;16.00;16.00;;;;;;;;5012834;28;51153;-71
2022/03/22 10:18:53;;;;;;;;;20.33;19.00;;;;;;;;5012859;28;51236;-71
2022/03/22 10:21:19;;;;;;;;;24.75;24.25;;;;;;;;5012915;28;52525;-71
2022/03/22 10:23:48;;;;;;;;;22.00;20.33;;;;;;;;5011349;28;51029;-71
2022/03/22 10:26:14;;;;;;;;;20.00;19.33;;;;;;;;5013112;28;51095;-70
2022/03/22 10:28:48;;;;;;;;;21.67;21.00;;;;;;;;5012501;28;51030;-71
2022/03/22 10:31:14;;;;;;;;;43.75;36.75;;;;;;;;5012156;28;51664;-71
2022/03/22 10:33:47;;;;;;;;;19.00;18.00;;;;;;;;5012366;28;51202;-70
2022/03/22 10:36:14;;;;;;;;;22.33;22.33;;;;;;;;5012633;28;50875;-71
2022/03/22 10:38:39;;;;;;;;;18.00;18.00;;;;;;;;5012686;28;51089;-71
2022/03/22 10:41:05;;;;;;;;;16.00;15.67;;;;;;;;5012173;28;51908;-70
2022/03/22 10:43:32;;;;;;;;;17.00;16.00;;;;;;;;5012352;28;51025;-71
2022/03/22 10:46:04;;;;;;;;;21.00;20.25;;;;;;;;5011186;28;51204;-71
2022/03/22 10:48:32;;;;;;;;;17.67;16.67;;;;;;;;4998870;28;51186;-72
2022/03/22 10:50:59;;;;;;;;;18.67;17.67;;;;;;;;5008440;28;53918;-71
2022/03/22 10:53:25;;;;;;;;;22.00;20.67;;;;;;;;5012844;28;51216;-71
2022/03/22 10:55:51;;;;;;;;;23.25;22.25;;;;;;;;5012126;28;50898;-71
2022/03/22 10:58:25;;;;;;;;;19.33;18.33;;;;;;;;5013083;28;50898;-71
2022/03/22 11:00:51;;;;;;;;;19.33;19.00;;;;;;;;5011429;28;51972;-72
2022/03/22 11:03:19;;;;;;;;;17.67;16.00;;;;;;;;5012836;28;50786;-71
2022/03/22 11:05:52;;;;;;;;;21.67;21.67;;;;;;;;5012821;28;51042;-72
2022/03/22 11:08:19;;;;;;;;;18.67;18.00;;;;;;;;5012751;28;51257;-71
2022/03/22 11:10:44;;;;;;;;;22.00;21.33;;;;;;;;5010387;28;52188;-72
2022/03/22 11:13:10;;;;;;;;;18.67;17.67;;;;;;;;5010301;28;51189;-70
2022/03/22 11:15:37;;;;;;;;;22.25;21.25;;;;;;;;5010357;28;51187;-71
2022/03/22 11:18:03;;;;;;;;;19.67;18.00;;;;;;;;5011777;28;51271;-70
2022/03/22 11:20:29;;;;;;;;;18.00;18.00;;;;;;;;5011466;28;52072;-71
2022/03/22 11:22:55;;;;;;;;;18.00;18.00;;;;;;;;5011666;28;51057;-71
2022/03/22 11:25:24;;;;;;;;;17.67;17.33;;;;;;;;5010341;28;51085;-71
2022/03/22 11:27:54;;;;;;;;;20.00;20.00;;;;;;;;5012022;28;51065;-71
2022/03/22 11:30:19;;;;;;;;;20.50;19.75;;;;;;;;5028198;28;52468;-71
2022/03/22 11:35:28;;;;;;;;;21.00;20.50;;;;;;;;5011614;28;51148;-71
2022/03/22 11:37:55;;;;;;;;;19.00;19.00;;;;;;;;5011662;28;51374;-70
2022/03/22 11:43:09;;;;;;;;;19.00;18.75;;;;;;;;5003415;28;51043;-70
2022/03/22 11:45:44;;;;;;;;;20.50;19.75;;;;;;;;5013190;28;51001;-71
2022/03/22 11:48:09;;;;;;;;;24.50;22.25;;;;;;;;5013714;28;50984;-70
2022/03/22 11:50:34;;;;;;;;;21.75;21.75;;;;;;;;5009098;28;51430;-70
2022/03/22 11:53:01;;;;;;;;;22.75;22.25;;;;;;;;5034886;28;51037;-71
2022/03/22 11:55:26;;;;;;;;;21.25;21.25;;;;;;;;5008075;28;50958;-71
2022/03/22 11:57:53;;;;;;;;;20.25;19.00;;;;;;;;5014944;28;51192;-72
2022/03/22 12:00:20;;;;;;;;;20.75;19.75;;;;;;;;5014371;28;51239;-71
2022/03/22 12:02:52;;;;;;;;;21.00;19.50;;;;;;;;5006070;28;51156;-71
2022/03/22 12:05:26;;;;;;;;;24.00;23.00;;;;;;;;5012891;28;51023;-71
2022/03/22 12:07:51;;;;;;;;;20.50;19.50;;;;;;;;5014986;28;50932;-71
2022/03/22 12:10:18;;;;;;;;;22.00;20.50;;;;;;;;5012497;28;51877;-70
2022/03/22 12:12:48;;;;;;;;;16.75;16.75;;;;;;;;5014374;28;51055;-70
2022/03/22 12:15:16;;;;;;;;;21.00;20.00;;;;;;;;5013568;28;50958;-71
2022/03/22 12:17:42;;;;;;;;;20.25;20.25;;;;;;;;5014145;28;51161;-71
2022/03/22 12:20:11;;;;;;;;;26.00;22.50;;;;;;;;5013842;28;51088;-70
2022/03/22 12:22:40;;;;;;;;;20.25;19.75;;;;;;;;5013028;28;50983;-71
2022/03/22 12:25:05;;;;;;;;;22.50;21.25;;;;;;;;5014135;28;51178;-71
2022/03/22 12:27:30;;;;;;;;;23.25;19.75;;;;;;;;5013918;28;50843;-70
2022/03/22 12:29:56;;;;;;;;;18.50;18.50;;;;;;;;5014097;28;50985;-71
2022/03/22 12:32:22;;;;;;;;;26.50;26.50;;;;;;;;5013331;28;51093;-71
2022/03/22 12:34:48;;;;;;;;;25.50;25.00;;;;;;;;5014409;28;50982;-71
2022/03/22 12:37:13;;;;;;;;;22.50;22.00;;;;;;;;5014034;28;50937;-70
2022/03/22 12:39:41;;;;;;;;;28.00;23.25;;;;;;;;5013452;28;51735;-71
2022/03/22 12:42:07;;;;;;;;;19.75;19.75;;;;;;;;5013399;28;50898;-71
2022/03/22 12:44:33;;;;;;;;;19.25;19.00;;;;;;;;5013396;28;50957;-71
2022/03/22 12:46:58;;;;;;;;;24.50;24.50;;;;;;;;5013446;28;51141;-71
2022/03/22 12:49:25;;;;;;;;;22.75;22.50;;;;;;;;5008396;28;52968;-71
2022/03/22 12:51:50;;;;;;;;;28.50;24.75;;;;;;;;5026221;28;51113;-70
2022/03/22 12:54:18;;;;;;;;;22.50;22.50;;;;;;;;5004790;28;51128;-71
2022/03/22 12:56:45;;;;;;;;;27.00;25.75;;;;;;;;5013438;28;50977;-70
2022/03/22 12:59:17;;;;;;;;;24.00;23.00;;;;;;;;5013334;28;51189;-71
2022/03/22 13:01:43;;;;;;;;;26.50;26.00;;;;;;;;5013031;28;51093;-70
2022/03/22 13:04:08;;;;;;;;;24.00;23.00;;;;;;;;5013554;28;50983;-70
2022/03/22 13:06:34;;;;;;;;;23.25;21.50;;;;;;;;5013515;28;51338;-70
2022/03/22 13:11:44;;;;;;;;;29.00;28.25;;;;;;;;5002648;28;50874;-71
2022/03/22 13:16:55;;;;;;;;;26.25;23.75;;;;;;;;5013786;28;50959;-71
2022/03/22 13:19:20;;;;;;;;;24.25;23.50;;;;;;;;5012647;28;50877;-71
2022/03/22 13:21:45;;;;;;;;;23.25;22.75;;;;;;;;5013761;28;50967;-71
2022/03/22 13:24:17;;;;;;;;;22.75;21.25;;;;;;;;5013565;28;51007;-71
2022/03/22 13:27:02;;;;;;;;;21.25;20.50;;;;;;;;5013596;28;50950;-70
2022/03/22 13:29:35;;;;;;;;;27.25;27.00;;;;;;;;5012854;28;52819;-70
2022/03/22 13:32:04;;;;;;;;;25.50;24.50;;;;;;;;5012299;28;51044;-71
2022/03/22 13:34:32;;;;;;;;;24.75;24.25;;;;;;;;5011747;28;50986;-71
2022/03/22 13:37:04;;;;;;;;;25.75;25.00;;;;;;;;5006889;28;51171;-72
2022/03/22 13:39:29;;;;;;;;;27.25;24.25;;;;;;;;5005997;28;50999;-70
2022/03/22 13:42:09;;;;;;;;;24.00;23.50;;;;;;;;5008126;28;51127;-70
2022/03/22 13:44:42;;;;;;;;;24.00;21.50;;;;;;;;5008190;28;50887;-70
2022/03/22 13:47:07;;;;;;;;;26.75;24.25;;;;;;;;5042310;28;51300;-70
2022/03/22 13:49:36;;;;;;;;;27.25;25.75;;;;;;;;5012533;28;52134;-71
2022/03/22 13:52:02;;;;;;;;;27.00;25.50;;;;;;;;5013112;28;51125;-72
2022/03/22 13:54:28;;;;;;;;;24.50;23.75;;;;;;;;5011327;28;51129;-70
2022/03/22 13:57:03;;;;;;;;;28.25;27.50;;;;;;;;5013399;28;50951;-72
2022/03/22 13:59:28;;;;;;;;;22.75;22.25;;;;;;;;5012720;28;51826;-70
2022/03/22 14:01:53;;;;;;;;;21.50;21.50;;;;;;;;5012350;28;51042;-72
2022/03/22 14:04:19;;;;;;;;;21.75;20.25;;;;;;;;5010969;28;51136;-70
2022/03/22 14:06:44;;;;;;;;;25.25;24.25;;;;;;;;5011513;28;51468;-71
2022/03/22 14:09:10;;;;;;;;;27.00;24.50;;;;;;;;5012451;28;51249;-71
2022/03/22 14:11:35;;;;;;;;;23.25;22.00;;;;;;;;5013922;28;50903;-71
2022/03/22 14:14:00;;;;;;;;;25.50;24.75;;;;;;;;5012723;28;51052;-71
2022/03/22 14:16:25;;;;;;;;;26.00;25.50;;;;;;;;5034965;28;51490;-70
2022/03/22 14:18:50;;;;;;;;;23.50;21.50;;;;;;;;5006576;28;52502;-71
2022/03/22 14:21:16;;;;;;;;;24.00;22.75;;;;;;;;5012809;28;51006;-71
2022/03/22 14:23:41;;;;;;;;;24.25;22.75;;;;;;;;5012738;28;51167;-70
2022/03/22 14:26:06;;;;;;;;;20.25;20.00;;;;;;;;5011554;28;51000;-71
2022/03/22 14:28:31;;;;;;;;;25.75;23.25;;;;;;;;5012272;28;50944;-71
2022/03/22 14:30:57;;;;;;;;;22.25;21.75;;;;;;;;5011132;28;50929;-71
2022/03/22 14:33:22;;;;;;;;;23.75;22.25;;;;;;;;5010818;28;51051;-71
2022/03/22 14:35:49;;;;;;;;;24.25;23.00;;;;;;;;5012553;28;51360;-70
2022/03/22 14:38:16;;;;;;;;;24.00;21.25;;;;;;;;5010613;28;52812;-71
2022/03/22 14:40:42;;;;;;;;;21.50;20.00;;;;;;;;5010697;28;51215;-71
2022/03/22 14:43:11;;;;;;;;;22.75;22.75;;;;;;;;5038596;28;51403;-70
2022/03/22 14:45:37;;;;;;;;;21.75;21.75;;;;;;;;5011390;28;51055;-71
2022/03/22 14:48:09;;;;;;;;;22.00;20.50;;;;;;;;5011608;28;51575;-71